sensor_id;sensor_type;location;lat;lon;timestamp;pressure;altitude;pressure_sealevel;temperature;humidity
76022;BME280;64718;52.124;6.226;2022-11-20T00:00:09;101401.44;;;-5.37;93.80
76022;BME280;64718;52.124;6.226;2022-11-20T00:02:35;101399.41;;;-5.47;94.49
76022;BME280;64718;52.124;6.226;2022-11-20T00:05:02;101410.19;;;-5.54;94.44
76022;BME280;64718;52.124;6.226;2022-11-20T00:07:29;101406.06;;;-5.51;93.74
76022;BME280;64718;52.124;6.226;2022-11-20T00:09:56;101408.13;;;-5.39;94.54
76022;BME280;64718;52.124;6.226;2022-11-20T00:12:22;101412.84;;;-5.50;94.28
76022;BME280;64718;52.124;6.226;2022-11-20T00:14:48;101405.06;;;-5.56;94.34
76022;BME280;64718;52.124;6.226;2022-11-20T00:17:16;101412.91;;;-5.48;94.51
76022;BME280;64718;52.124;6.226;2022-11-20T00:19:43;101407.16;;;-5.69;94.48
76022;BME280;64718;52.124;6.226;2022-11-20T00:22:09;101399.84;;;-5.60;93.90
76022;BME280;64718;52.124;6.226;2022-11-20T00:24:36;101394.63;;;-5.38;93.87
76022;BME280;64718;52.124;6.226;2022-11-20T00:27:02;101390.63;;;-5.31;93.79
76022;BME280;64718;52.124;6.226;2022-11-20T00:29:29;101392.09;;;-5.38;94.21
76022;BME280;64718;52.124;6.226;2022-11-20T00:31:55;101394.72;;;-5.35;94.28
76022;BME280;64718;52.124;6.226;2022-11-20T00:34:23;101385.59;;;-5.30;93.68
76022;BME280;64718;52.124;6.226;2022-11-20T00:36:50;101382.91;;;-5.34;94.14
76022;BME280;64718;52.124;6.226;2022-11-20T00:39:16;101388.94;;;-5.58;94.00
76022;BME280;64718;52.124;6.226;2022-11-20T00:41:43;101386.75;;;-5.74;94.52
76022;BME280;64718;52.124;6.226;2022-11-20T00:44:09;101388.94;;;-5.83;93.97
76022;BME280;64718;52.124;6.226;2022-11-20T00:46:36;101393.81;;;-5.91;94.31
76022;BME280;64718;52.124;6.226;2022-11-20T00:49:02;101381.88;;;-5.68;94.33
76022;BME280;64718;52.124;6.226;2022-11-20T00:51:30;101379.19;;;-5.46;93.91
76022;BME280;64718;52.124;6.226;2022-11-20T00:53:57;101383.41;;;-5.46;94.50
76022;BME280;64718;52.124;6.226;2022-11-20T00:56:25;101376.25;;;-5.59;93.53
76022;BME280;64718;52.124;6.226;2022-11-20T00:58:51;101379.63;;;-5.59;93.58
76022;BME280;64718;52.124;6.226;2022-11-20T01:01:20;101376.19;;;-5.61;93.99
76022;BME280;64718;52.124;6.226;2022-11-20T01:03:50;101385.28;;;-5.67;94.18
76022;BME280;64718;52.124;6.226;2022-11-20T01:06:18;101378.69;;;-5.88;93.90
76022;BME280;64718;52.124;6.226;2022-11-20T01:08:47;101382.72;;;-5.94;94.85
76022;BME280;64718;52.124;6.226;2022-11-20T01:11:15;101391.78;;;-6.01;95.30
76022;BME280;64718;52.124;6.226;2022-11-20T01:13:43;101391.53;;;-6.09;95.01
76022;BME280;64718;52.124;6.226;2022-11-20T01:16:12;101389.72;;;-6.13;94.94
76022;BME280;64718;52.124;6.226;2022-11-20T01:18:40;101389.84;;;-6.08;95.08
76022;BME280;64718;52.124;6.226;2022-11-20T01:21:09;101389.25;;;-6.01;95.28
76022;BME280;64718;52.124;6.226;2022-11-20T01:23:38;101379.13;;;-6.01;95.07
76022;BME280;64718;52.124;6.226;2022-11-20T01:26:08;101383.69;;;-6.16;95.33
76022;BME280;64718;52.124;6.226;2022-11-20T01:28:35;101381.56;;;-6.04;95.33
76022;BME280;64718;52.124;6.226;2022-11-20T01:31:10;101374.09;;;-5.99;95.16
76022;BME280;64718;52.124;6.226;2022-11-20T01:33:39;101357.16;;;-6.02;94.89
76022;BME280;64718;52.124;6.226;2022-11-20T01:36:06;101367.06;;;-5.81;94.37
76022;BME280;64718;52.124;6.226;2022-11-20T01:38:33;101367.53;;;-5.67;94.03
76022;BME280;64718;52.124;6.226;2022-11-20T01:40:59;101365.78;;;-5.70;94.12
76022;BME280;64718;52.124;6.226;2022-11-20T01:43:28;101369.78;;;-5.77;94.53
76022;BME280;64718;52.124;6.226;2022-11-20T01:46:03;101369.28;;;-5.92;94.08
76022;BME280;64718;52.124;6.226;2022-11-20T01:48:31;101377.19;;;-6.08;94.02
76022;BME280;64718;52.124;6.226;2022-11-20T01:51:00;101377.75;;;-6.17;93.74
76022;BME280;64718;52.124;6.226;2022-11-20T01:53:31;101353.66;;;-6.06;94.54
76022;BME280;64718;52.124;6.226;2022-11-20T01:56:00;101368.41;;;-6.19;94.23
76022;BME280;64718;52.124;6.226;2022-11-20T01:58:32;101361.47;;;-6.25;94.76
76022;BME280;64718;52.124;6.226;2022-11-20T02:00:59;101354.78;;;-6.23;94.98
76022;BME280;64718;52.124;6.226;2022-11-20T02:03:26;101354.28;;;-6.13;95.70
76022;BME280;64718;52.124;6.226;2022-11-20T02:05:56;101347.25;;;-6.21;95.70
76022;BME280;64718;52.124;6.226;2022-11-20T02:08:25;101352.84;;;-6.30;95.55
76022;BME280;64718;52.124;6.226;2022-11-20T02:10:52;101347.03;;;-6.27;95.58
76022;BME280;64718;52.124;6.226;2022-11-20T02:13:19;101349.78;;;-6.21;95.17
76022;BME280;64718;52.124;6.226;2022-11-20T02:16:05;101354.13;;;-6.17;95.10
76022;BME280;64718;52.124;6.226;2022-11-20T02:18:34;101342.56;;;-6.09;95.06
76022;BME280;64718;52.124;6.226;2022-11-20T02:21:06;101336.84;;;-6.03;94.97
76022;BME280;64718;52.124;6.226;2022-11-20T02:23:38;101329.31;;;-6.02;94.45
76022;BME280;64718;52.124;6.226;2022-11-20T02:26:10;101337.13;;;-6.21;94.66
76022;BME280;64718;52.124;6.226;2022-11-20T02:28:39;101326.25;;;-6.43;94.42
76022;BME280;64718;52.124;6.226;2022-11-20T02:31:05;101317.75;;;-6.45;94.29
76022;BME280;64718;52.124;6.226;2022-11-20T02:33:33;101316.75;;;-6.24;94.47
76022;BME280;64718;52.124;6.226;2022-11-20T02:35:59;101311.00;;;-6.20;94.09
76022;BME280;64718;52.124;6.226;2022-11-20T02:38:26;101311.91;;;-6.18;94.53
76022;BME280;64718;52.124;6.226;2022-11-20T02:40:53;101320.31;;;-6.19;94.56
76022;BME280;64718;52.124;6.226;2022-11-20T02:43:20;101312.41;;;-6.28;94.17
76022;BME280;64718;52.124;6.226;2022-11-20T02:45:47;101315.94;;;-6.49;94.05
76022;BME280;64718;52.124;6.226;2022-11-20T02:48:13;101323.81;;;-6.65;94.13
76022;BME280;64718;52.124;6.226;2022-11-20T02:50:40;101324.66;;;-6.64;94.00
76022;BME280;64718;52.124;6.226;2022-11-20T02:53:07;101317.59;;;-6.49;93.87
76022;BME280;64718;52.124;6.226;2022-11-20T02:55:33;101320.34;;;-6.43;94.59
76022;BME280;64718;52.124;6.226;2022-11-20T02:58:00;101312.66;;;-6.21;94.78
76022;BME280;64718;52.124;6.226;2022-11-20T03:00:28;101317.22;;;-6.11;94.58
76022;BME280;64718;52.124;6.226;2022-11-20T03:02:54;101318.25;;;-6.31;93.77
76022;BME280;64718;52.124;6.226;2022-11-20T03:05:21;101320.44;;;-6.40;93.83
76022;BME280;64718;52.124;6.226;2022-11-20T03:07:48;101310.53;;;-6.09;93.97
76022;BME280;64718;52.124;6.226;2022-11-20T03:10:14;101310.72;;;-5.76;94.00
76022;BME280;64718;52.124;6.226;2022-11-20T03:12:41;101317.25;;;-5.82;93.60
76022;BME280;64718;52.124;6.226;2022-11-20T03:15:08;101304.50;;;-6.12;93.75
76022;BME280;64718;52.124;6.226;2022-11-20T03:17:36;101311.81;;;-6.21;94.13
76022;BME280;64718;52.124;6.226;2022-11-20T03:20:04;101307.47;;;-6.25;94.48
76022;BME280;64718;52.124;6.226;2022-11-20T03:22:31;101313.19;;;-6.31;94.44
76022;BME280;64718;52.124;6.226;2022-11-20T03:24:57;101317.00;;;-6.42;94.77
76022;BME280;64718;52.124;6.226;2022-11-20T03:27:24;101314.06;;;-6.54;94.86
76022;BME280;64718;52.124;6.226;2022-11-20T03:29:50;101313.78;;;-6.62;94.94
76022;BME280;64718;52.124;6.226;2022-11-20T03:32:17;101314.59;;;-6.63;94.61
76022;BME280;64718;52.124;6.226;2022-11-20T03:34:45;101311.16;;;-6.40;94.70
76022;BME280;64718;52.124;6.226;2022-11-20T03:37:11;101309.44;;;-6.41;94.44
76022;BME280;64718;52.124;6.226;2022-11-20T03:39:37;101297.66;;;-6.40;94.39
76022;BME280;64718;52.124;6.226;2022-11-20T03:42:04;101299.84;;;-6.51;94.73
76022;BME280;64718;52.124;6.226;2022-11-20T03:44:50;101290.78;;;-6.44;94.69
76022;BME280;64718;52.124;6.226;2022-11-20T03:47:17;101286.78;;;-6.38;94.73
76022;BME280;64718;52.124;6.226;2022-11-20T03:49:45;101281.66;;;-6.39;94.65
76022;BME280;64718;52.124;6.226;2022-11-20T03:52:11;101294.06;;;-6.47;94.44
76022;BME280;64718;52.124;6.226;2022-11-20T03:54:38;101285.56;;;-6.49;94.31
76022;BME280;64718;52.124;6.226;2022-11-20T03:57:04;101294.72;;;-6.52;94.46
76022;BME280;64718;52.124;6.226;2022-11-20T03:59:31;101300.28;;;-6.62;94.53
76022;BME280;64718;52.124;6.226;2022-11-20T04:01:57;101293.94;;;-6.75;94.53
76022;BME280;64718;52.124;6.226;2022-11-20T04:04:24;101287.66;;;-6.86;94.59
76022;BME280;64718;52.124;6.226;2022-11-20T04:06:52;101285.84;;;-6.90;94.82
76022;BME280;64718;52.124;6.226;2022-11-20T04:09:18;101280.59;;;-6.95;94.99
76022;BME280;64718;52.124;6.226;2022-11-20T04:11:45;101269.97;;;-6.86;95.03
76022;BME280;64718;52.124;6.226;2022-11-20T04:14:13;101270.72;;;-6.89;95.10
76022;BME280;64718;52.124;6.226;2022-11-20T04:16:40;101271.03;;;-6.80;94.67
76022;BME280;64718;52.124;6.226;2022-11-20T04:19:10;101269.41;;;-6.78;94.83
76022;BME280;64718;52.124;6.226;2022-11-20T04:21:37;101285.25;;;-6.83;94.83
76022;BME280;64718;52.124;6.226;2022-11-20T04:24:06;101274.22;;;-6.85;95.15
76022;BME280;64718;52.124;6.226;2022-11-20T04:26:33;101277.22;;;-6.72;94.95
76022;BME280;64718;52.124;6.226;2022-11-20T04:29:00;101271.81;;;-6.57;94.43
76022;BME280;64718;52.124;6.226;2022-11-20T04:31:29;101282.03;;;-6.54;94.31
76022;BME280;64718;52.124;6.226;2022-11-20T04:33:59;101282.47;;;-6.65;94.29
76022;BME280;64718;52.124;6.226;2022-11-20T04:36:27;101276.84;;;-6.82;94.19
76022;BME280;64718;52.124;6.226;2022-11-20T04:38:55;101280.78;;;-6.90;93.90
76022;BME280;64718;52.124;6.226;2022-11-20T04:41:24;101272.00;;;-6.76;94.35
76022;BME280;64718;52.124;6.226;2022-11-20T04:43:52;101278.25;;;-6.90;94.31
76022;BME280;64718;52.124;6.226;2022-11-20T04:46:20;101280.44;;;-6.99;94.40
76022;BME280;64718;52.124;6.226;2022-11-20T04:48:47;101271.22;;;-6.97;94.60
76022;BME280;64718;52.124;6.226;2022-11-20T04:51:14;101270.44;;;-6.96;94.58
76022;BME280;64718;52.124;6.226;2022-11-20T04:53:41;101263.56;;;-6.77;94.94
76022;BME280;64718;52.124;6.226;2022-11-20T04:56:10;101266.72;;;-7.06;94.50
76022;BME280;64718;52.124;6.226;2022-11-20T04:58:38;101272.09;;;-6.97;95.26
76022;BME280;64718;52.124;6.226;2022-11-20T05:01:07;101266.78;;;-7.05;95.10
76022;BME280;64718;52.124;6.226;2022-11-20T05:03:35;101270.25;;;-7.01;94.95
76022;BME280;64718;52.124;6.226;2022-11-20T05:06:02;101267.56;;;-7.06;95.00
76022;BME280;64718;52.124;6.226;2022-11-20T05:08:29;101273.59;;;-7.02;94.75
76022;BME280;64718;52.124;6.226;2022-11-20T05:10:59;101277.59;;;-7.09;94.11
76022;BME280;64718;52.124;6.226;2022-11-20T05:13:26;101273.28;;;-7.11;94.47
76022;BME280;64718;52.124;6.226;2022-11-20T05:15:54;101273.91;;;-7.17;94.28
76022;BME280;64718;52.124;6.226;2022-11-20T05:18:21;101268.88;;;-7.17;94.10
76022;BME280;64718;52.124;6.226;2022-11-20T05:20:54;101275.75;;;-7.13;94.12
76022;BME280;64718;52.124;6.226;2022-11-20T05:23:21;101279.34;;;-7.06;94.36
76022;BME280;64718;52.124;6.226;2022-11-20T05:25:47;101274.66;;;-7.19;94.51
76022;BME280;64718;52.124;6.226;2022-11-20T05:28:14;101271.06;;;-7.26;94.26
76022;BME280;64718;52.124;6.226;2022-11-20T05:30:40;101261.50;;;-7.35;93.97
76022;BME280;64718;52.124;6.226;2022-11-20T05:33:09;101256.06;;;-7.21;94.06
76022;BME280;64718;52.124;6.226;2022-11-20T05:35:35;101265.47;;;-7.17;94.67
76022;BME280;64718;52.124;6.226;2022-11-20T05:38:02;101262.84;;;-7.20;94.31
76022;BME280;64718;52.124;6.226;2022-11-20T05:40:28;101257.84;;;-7.19;94.48
76022;BME280;64718;52.124;6.226;2022-11-20T05:42:55;101260.25;;;-7.22;94.47
76022;BME280;64718;52.124;6.226;2022-11-20T05:45:21;101254.47;;;-7.19;94.64
76022;BME280;64718;52.124;6.226;2022-11-20T05:47:48;101264.19;;;-7.06;94.75
76022;BME280;64718;52.124;6.226;2022-11-20T05:50:16;101256.78;;;-7.25;94.29
76022;BME280;64718;52.124;6.226;2022-11-20T05:52:42;101254.41;;;-7.21;94.27
76022;BME280;64718;52.124;6.226;2022-11-20T05:55:09;101238.44;;;-6.96;93.97
76022;BME280;64718;52.124;6.226;2022-11-20T05:57:35;101236.44;;;-6.81;93.97
76022;BME280;64718;52.124;6.226;2022-11-20T06:00:03;101229.81;;;-6.77;93.42
76022;BME280;64718;52.124;6.226;2022-11-20T06:02:30;101230.78;;;-6.74;93.57
76022;BME280;64718;52.124;6.226;2022-11-20T06:04:56;101236.56;;;-6.78;93.40
76022;BME280;64718;52.124;6.226;2022-11-20T06:07:24;101242.16;;;-6.86;92.96
76022;BME280;64718;52.124;6.226;2022-11-20T06:09:50;101242.00;;;-6.91;92.75
76022;BME280;64718;52.124;6.226;2022-11-20T06:12:17;101253.19;;;-6.84;93.12
76022;BME280;64718;52.124;6.226;2022-11-20T06:14:43;101257.28;;;-6.88;93.46
76022;BME280;64718;52.124;6.226;2022-11-20T06:17:10;101250.38;;;-7.16;93.13
76022;BME280;64718;52.124;6.226;2022-11-20T06:19:36;101253.72;;;-7.17;93.87
76022;BME280;64718;52.124;6.226;2022-11-20T06:22:03;101261.19;;;-6.96;94.11
76022;BME280;64718;52.124;6.226;2022-11-20T06:24:31;101262.16;;;-7.16;93.68
76022;BME280;64718;52.124;6.226;2022-11-20T06:26:57;101257.25;;;-7.36;93.52
76022;BME280;64718;52.124;6.226;2022-11-20T06:29:24;101252.03;;;-7.40;93.56
76022;BME280;64718;52.124;6.226;2022-11-20T06:31:50;101252.25;;;-7.34;93.73
76022;BME280;64718;52.124;6.226;2022-11-20T06:34:17;101251.34;;;-7.36;93.66
76022;BME280;64718;52.124;6.226;2022-11-20T06:36:43;101254.88;;;-7.31;93.64
76022;BME280;64718;52.124;6.226;2022-11-20T06:39:10;101257.47;;;-7.29;93.73
76022;BME280;64718;52.124;6.226;2022-11-20T06:41:38;101259.47;;;-7.21;94.25
76022;BME280;64718;52.124;6.226;2022-11-20T06:44:05;101259.13;;;-7.30;93.70
76022;BME280;64718;52.124;6.226;2022-11-20T06:46:31;101268.47;;;-7.51;93.38
76022;BME280;64718;52.124;6.226;2022-11-20T06:48:58;101272.00;;;-7.46;93.80
76022;BME280;64718;52.124;6.226;2022-11-20T06:51:25;101272.88;;;-7.46;93.74
76022;BME280;64718;52.124;6.226;2022-11-20T06:53:51;101272.25;;;-7.40;93.41
76022;BME280;64718;52.124;6.226;2022-11-20T06:56:18;101277.34;;;-7.39;93.66
76022;BME280;64718;52.124;6.226;2022-11-20T06:58:45;101276.56;;;-7.58;93.31
76022;BME280;64718;52.124;6.226;2022-11-20T07:01:13;101272.19;;;-7.42;94.18
76022;BME280;64718;52.124;6.226;2022-11-20T07:03:40;101277.00;;;-7.48;93.64
76022;BME280;64718;52.124;6.226;2022-11-20T07:06:07;101267.34;;;-7.36;93.81
76022;BME280;64718;52.124;6.226;2022-11-20T07:08:34;101272.56;;;-7.31;93.42
76022;BME280;64718;52.124;6.226;2022-11-20T07:11:03;101273.53;;;-7.27;93.64
76022;BME280;64718;52.124;6.226;2022-11-20T07:13:30;101268.31;;;-7.32;93.78
76022;BME280;64718;52.124;6.226;2022-11-20T07:16:00;101265.25;;;-7.23;94.11
76022;BME280;64718;52.124;6.226;2022-11-20T07:18:27;101276.41;;;-7.18;94.00
76022;BME280;64718;52.124;6.226;2022-11-20T07:20:54;101277.63;;;-7.07;93.73
76022;BME280;64718;52.124;6.226;2022-11-20T07:23:20;101279.66;;;-7.21;93.45
76022;BME280;64718;52.124;6.226;2022-11-20T07:25:47;101274.88;;;-7.13;93.71
76022;BME280;64718;52.124;6.226;2022-11-20T07:28:13;101276.97;;;-7.25;93.48
76022;BME280;64718;52.124;6.226;2022-11-20T07:30:40;101277.09;;;-7.22;93.40
76022;BME280;64718;52.124;6.226;2022-11-20T07:33:07;101278.72;;;-7.01;93.39
76022;BME280;64718;52.124;6.226;2022-11-20T07:35:34;101274.78;;;-6.68;92.88
76022;BME280;64718;52.124;6.226;2022-11-20T07:38:01;101263.81;;;-6.44;92.48
76022;BME280;64718;52.124;6.226;2022-11-20T07:40:27;101262.06;;;-6.21;92.48
76022;BME280;64718;52.124;6.226;2022-11-20T07:42:54;101255.03;;;-6.02;91.92
76022;BME280;64718;52.124;6.226;2022-11-20T07:45:23;101258.56;;;-5.97;91.41
76022;BME280;64718;52.124;6.226;2022-11-20T07:47:50;101251.09;;;-5.93;91.25
76022;BME280;64718;52.124;6.226;2022-11-20T07:50:18;101241.94;;;-5.88;91.07
76022;BME280;64718;52.124;6.226;2022-11-20T07:52:45;101239.59;;;-5.82;90.77
76022;BME280;64718;52.124;6.226;2022-11-20T07:55:12;101234.03;;;-5.71;91.34
76022;BME280;64718;52.124;6.226;2022-11-20T07:57:39;101234.88;;;-5.71;91.61
76022;BME280;64718;52.124;6.226;2022-11-20T08:00:08;101230.63;;;-5.72;91.42
76022;BME280;64718;52.124;6.226;2022-11-20T08:02:36;101231.72;;;-5.64;90.99
76022;BME280;64718;52.124;6.226;2022-11-20T08:05:03;101231.03;;;-5.58;91.37
76022;BME280;64718;52.124;6.226;2022-11-20T08:07:36;101236.00;;;-5.61;91.46
76022;BME280;64718;52.124;6.226;2022-11-20T08:10:04;101241.94;;;-5.61;91.23
76022;BME280;64718;52.124;6.226;2022-11-20T08:12:30;101244.16;;;-5.42;91.06
76022;BME280;64718;52.124;6.226;2022-11-20T08:15:15;101239.31;;;-5.34;90.67
76022;BME280;64718;52.124;6.226;2022-11-20T08:17:41;101234.66;;;-5.20;91.18
76022;BME280;64718;52.124;6.226;2022-11-20T08:20:08;101227.38;;;-5.08;90.76
76022;BME280;64718;52.124;6.226;2022-11-20T08:22:36;101227.66;;;-4.97;90.02
76022;BME280;64718;52.124;6.226;2022-11-20T08:25:03;101239.00;;;-4.85;90.08
76022;BME280;64718;52.124;6.226;2022-11-20T08:27:31;101227.44;;;-4.73;90.74
76022;BME280;64718;52.124;6.226;2022-11-20T08:29:58;101225.75;;;-4.73;90.57
76022;BME280;64718;52.124;6.226;2022-11-20T08:32:24;101225.94;;;-4.65;90.00
76022;BME280;64718;52.124;6.226;2022-11-20T08:34:50;101222.97;;;-4.51;91.14
76022;BME280;64718;52.124;6.226;2022-11-20T08:37:17;101223.38;;;-4.34;90.13
76022;BME280;64718;52.124;6.226;2022-11-20T08:39:45;101226.19;;;-4.22;90.99
76022;BME280;64718;52.124;6.226;2022-11-20T08:42:12;101224.94;;;-4.04;90.51
76022;BME280;64718;52.124;6.226;2022-11-20T08:44:38;101223.41;;;-3.96;90.20
76022;BME280;64718;52.124;6.226;2022-11-20T08:47:05;101221.97;;;-3.85;89.53
76022;BME280;64718;52.124;6.226;2022-11-20T08:49:31;101216.19;;;-3.78;88.74
76022;BME280;64718;52.124;6.226;2022-11-20T08:51:58;101220.59;;;-3.69;88.88
76022;BME280;64718;52.124;6.226;2022-11-20T08:54:24;101218.41;;;-3.53;89.23
76022;BME280;64718;52.124;6.226;2022-11-20T08:56:52;101220.41;;;-3.39;88.61
76022;BME280;64718;52.124;6.226;2022-11-20T08:59:19;101214.81;;;-3.22;87.84
76022;BME280;64718;52.124;6.226;2022-11-20T09:01:45;101203.28;;;-3.04;87.50
76022;BME280;64718;52.124;6.226;2022-11-20T09:04:12;101195.81;;;-2.95;88.14
76022;BME280;64718;52.124;6.226;2022-11-20T09:06:39;101198.44;;;-2.91;88.18
76022;BME280;64718;52.124;6.226;2022-11-20T09:09:06;101196.88;;;-2.84;86.98
76022;BME280;64718;52.124;6.226;2022-11-20T09:11:32;101192.75;;;-2.77;87.39
76022;BME280;64718;52.124;6.226;2022-11-20T09:14:01;101194.88;;;-2.52;88.00
76022;BME280;64718;52.124;6.226;2022-11-20T09:16:29;101195.19;;;-2.32;87.55
76022;BME280;64718;52.124;6.226;2022-11-20T09:18:56;101184.38;;;-2.17;87.48
76022;BME280;64718;52.124;6.226;2022-11-20T09:21:22;101182.84;;;-2.06;87.68
76022;BME280;64718;52.124;6.226;2022-11-20T09:23:49;101187.28;;;-1.93;87.48
76022;BME280;64718;52.124;6.226;2022-11-20T09:26:16;101180.56;;;-1.86;87.36
76022;BME280;64718;52.124;6.226;2022-11-20T09:28:42;101175.91;;;-1.54;88.05
76022;BME280;64718;52.124;6.226;2022-11-20T09:31:19;101171.00;;;-1.38;85.22
76022;BME280;64718;52.124;6.226;2022-11-20T09:33:47;101172.75;;;-1.34;85.97
76022;BME280;64718;52.124;6.226;2022-11-20T09:36:13;101170.47;;;-1.09;84.72
76022;BME280;64718;52.124;6.226;2022-11-20T09:38:41;101168.88;;;-0.98;84.25
76022;BME280;64718;52.124;6.226;2022-11-20T09:41:26;101167.91;;;-1.11;84.93
76022;BME280;64718;52.124;6.226;2022-11-20T09:44:02;101164.84;;;-1.55;85.55
76022;BME280;64718;52.124;6.226;2022-11-20T09:46:38;101167.13;;;-1.75;86.15
76022;BME280;64718;52.124;6.226;2022-11-20T09:49:19;101169.53;;;-1.87;87.29
76022;BME280;64718;52.124;6.226;2022-11-20T09:51:56;101164.38;;;-1.92;88.06
76022;BME280;64718;52.124;6.226;2022-11-20T09:54:28;101172.16;;;-1.81;86.97
76022;BME280;64718;52.124;6.226;2022-11-20T09:56:59;101168.91;;;-1.71;86.75
76022;BME280;64718;52.124;6.226;2022-11-20T09:59:35;101163.97;;;-1.57;86.89
76022;BME280;64718;52.124;6.226;2022-11-20T10:02:27;101166.66;;;-1.46;87.55
76022;BME280;64718;52.124;6.226;2022-11-20T10:04:59;101158.31;;;-1.30;86.45
76022;BME280;64718;52.124;6.226;2022-11-20T10:07:31;101153.31;;;-1.21;86.70
76022;BME280;64718;52.124;6.226;2022-11-20T10:10:02;101149.22;;;-1.07;86.20
76022;BME280;64718;52.124;6.226;2022-11-20T10:12:47;101142.53;;;-0.96;86.47
76022;BME280;64718;52.124;6.226;2022-11-20T10:15:30;101146.88;;;-0.85;85.72
76022;BME280;64718;52.124;6.226;2022-11-20T10:18:11;101144.44;;;-0.72;84.67
76022;BME280;64718;52.124;6.226;2022-11-20T10:20:46;101138.53;;;-0.63;85.92
76022;BME280;64718;52.124;6.226;2022-11-20T10:23:25;101129.16;;;-0.67;84.76
76022;BME280;64718;52.124;6.226;2022-11-20T10:26:01;101130.16;;;-0.47;85.07
76022;BME280;64718;52.124;6.226;2022-11-20T10:28:38;101121.66;;;-0.47;83.65
76022;BME280;64718;52.124;6.226;2022-11-20T10:31:11;101121.72;;;-0.38;83.90
76022;BME280;64718;52.124;6.226;2022-11-20T10:33:44;101112.38;;;-0.33;84.17
76022;BME280;64718;52.124;6.226;2022-11-20T10:36:16;101118.34;;;-0.31;83.83
76022;BME280;64718;52.124;6.226;2022-11-20T10:38:48;101111.59;;;-0.18;84.22
76022;BME280;64718;52.124;6.226;2022-11-20T10:41:20;101117.56;;;-0.18;83.03
76022;BME280;64718;52.124;6.226;2022-11-20T10:43:56;101121.00;;;-0.14;83.13
76022;BME280;64718;52.124;6.226;2022-11-20T10:46:32;101117.63;;;-0.04;83.52
76022;BME280;64718;52.124;6.226;2022-11-20T10:49:05;101119.31;;;-0.08;83.85
76022;BME280;64718;52.124;6.226;2022-11-20T10:51:40;101122.75;;;-0.01;84.06
76022;BME280;64718;52.124;6.226;2022-11-20T10:54:21;101120.25;;;0.02;84.04
76022;BME280;64718;52.124;6.226;2022-11-20T10:56:52;101115.19;;;0.16;84.76
76022;BME280;64718;52.124;6.226;2022-11-20T10:59:47;101109.25;;;0.20;83.19
76022;BME280;64718;52.124;6.226;2022-11-20T11:02:19;101098.22;;;0.31;83.74
76022;BME280;64718;52.124;6.226;2022-11-20T11:04:48;101096.50;;;0.34;83.14
76022;BME280;64718;52.124;6.226;2022-11-20T11:07:17;101093.06;;;0.25;82.84
76022;BME280;64718;52.124;6.226;2022-11-20T11:09:48;101099.03;;;0.26;82.22
76022;BME280;64718;52.124;6.226;2022-11-20T11:12:15;101093.13;;;0.50;82.93
76022;BME280;64718;52.124;6.226;2022-11-20T11:14:44;101089.78;;;0.71;81.89
76022;BME280;64718;52.124;6.226;2022-11-20T11:17:26;101077.88;;;0.99;82.77
76022;BME280;64718;52.124;6.226;2022-11-20T11:20:04;101074.47;;;0.95;81.83
76022;BME280;64718;52.124;6.226;2022-11-20T11:22:33;101069.31;;;0.71;82.44
76022;BME280;64718;52.124;6.226;2022-11-20T11:25:00;101066.75;;;0.63;82.72
76022;BME280;64718;52.124;6.226;2022-11-20T11:27:27;101065.91;;;0.64;82.97
76022;BME280;64718;52.124;6.226;2022-11-20T11:30:12;101069.31;;;0.68;83.00
76022;BME280;64718;52.124;6.226;2022-11-20T11:32:39;101061.66;;;0.84;82.42
76022;BME280;64718;52.124;6.226;2022-11-20T11:35:23;101047.16;;;0.80;82.59
76022;BME280;64718;52.124;6.226;2022-11-20T11:37:51;101042.03;;;0.91;82.88
76022;BME280;64718;52.124;6.226;2022-11-20T11:40:21;101039.44;;;1.09;82.56
76022;BME280;64718;52.124;6.226;2022-11-20T11:42:53;101042.88;;;1.26;82.74
76022;BME280;64718;52.124;6.226;2022-11-20T11:45:21;101041.97;;;1.49;81.96
76022;BME280;64718;52.124;6.226;2022-11-20T11:47:47;101029.97;;;1.58;81.50
76022;BME280;64718;52.124;6.226;2022-11-20T11:50:19;101021.41;;;1.70;81.31
76022;BME280;64718;52.124;6.226;2022-11-20T11:52:51;101022.25;;;1.80;81.25
76022;BME280;64718;52.124;6.226;2022-11-20T11:55:28;101023.94;;;1.85;81.11
76022;BME280;64718;52.124;6.226;2022-11-20T11:58:09;101017.09;;;1.86;81.34
76022;BME280;64718;52.124;6.226;2022-11-20T12:00:40;101008.56;;;1.79;81.35
76022;BME280;64718;52.124;6.226;2022-11-20T12:03:13;101006.84;;;1.84;81.31
76022;BME280;64718;52.124;6.226;2022-11-20T12:05:44;100997.44;;;1.82;80.67
76022;BME280;64718;52.124;6.226;2022-11-20T12:08:16;100994.88;;;1.85;80.91
76022;BME280;64718;52.124;6.226;2022-11-20T12:10:48;100996.59;;;1.84;80.71
76022;BME280;64718;52.124;6.226;2022-11-20T12:13:32;100987.06;;;2.06;81.00
76022;BME280;64718;52.124;6.226;2022-11-20T12:16:02;100984.47;;;2.14;80.89
76022;BME280;64718;52.124;6.226;2022-11-20T12:18:29;100978.50;;;2.07;79.67
76022;BME280;64718;52.124;6.226;2022-11-20T12:21:17;100979.38;;;2.03;80.32
76022;BME280;64718;52.124;6.226;2022-11-20T12:23:53;100975.13;;;2.04;81.57
76022;BME280;64718;52.124;6.226;2022-11-20T12:26:37;100960.59;;;2.01;80.34
76022;BME280;64718;52.124;6.226;2022-11-20T12:29:12;100952.88;;;2.03;79.86
76022;BME280;64718;52.124;6.226;2022-11-20T12:31:55;100947.78;;;2.00;80.01
76022;BME280;64718;52.124;6.226;2022-11-20T12:34:39;100936.66;;;2.01;80.76
76022;BME280;64718;52.124;6.226;2022-11-20T12:37:19;100937.50;;;2.00;81.00
76022;BME280;64718;52.124;6.226;2022-11-20T12:39:50;100934.94;;;2.03;80.37
76022;BME280;64718;52.124;6.226;2022-11-20T12:42:42;100930.66;;;2.03;80.67
76022;BME280;64718;52.124;6.226;2022-11-20T12:45:54;100924.72;;;1.95;80.86
76022;BME280;64718;52.124;6.226;2022-11-20T12:48:37;100914.47;;;1.92;82.51
76022;BME280;64718;52.124;6.226;2022-11-20T12:57:25;100915.31;;;1.94;81.18
76022;BME280;64718;52.124;6.226;2022-11-20T13:00:11;100910.22;;;1.91;81.70
76022;BME280;64718;52.124;6.226;2022-11-20T13:03:00;100907.75;;;1.77;81.31
76022;BME280;64718;52.124;6.226;2022-11-20T13:05:37;100902.56;;;1.83;81.79
76022;BME280;64718;52.124;6.226;2022-11-20T13:08:18;100896.63;;;1.78;81.22
76022;BME280;64718;52.124;6.226;2022-11-20T13:10:50;100891.50;;;1.77;82.21